sensor_id;sensor_type;location;lat;lon;timestamp;P1;durP1;ratioP1;P2;durP2;ratioP2
3613;SDS011;1821;50.936;6.854;2023-03-21T00:00:00;10.57;;;5.50;;
3613;SDS011;1821;50.936;6.854;2023-03-21T00:00:42;8.95;;;5.78;;
3613;SDS011;1821;50.936;6.854;2023-03-21T00:01:24;11.32;;;6.38;;
3613;SDS011;1821;50.936;6.854;2023-03-21T00:02:06;11.50;;;6.25;;
3613;SDS011;1821;50.936;6.854;2023-03-21T00:02:48;10.40;;;6.07;;
3613;SDS011;1821;50.936;6.854;2023-03-21T00:03:32;8.80;;;5.67;;
3613;SDS011;1821;50.936;6.854;2023-03-21T00:04:17;10.32;;;6.20;;
3613;SDS011;1821;50.936;6.854;2023-03-21T00:05:00;9.02;;;5.90;;
3613;SDS011;1821;50.936;6.854;2023-03-21T00:05:55;11.00;;;5.97;;
3613;SDS011;1821;50.936;6.854;2023-03-21T00:06:37;10.48;;;5.72;;
3613;SDS011;1821;50.936;6.854;2023-03-21T00:07:19;10.50;;;6.00;;
3613;SDS011;1821;50.936;6.854;2023-03-21T00:08:01;9.43;;;6.00;;
3613;SDS011;1821;50.936;6.854;2023-03-21T00:08:43;9.35;;;6.00;;
3613;SDS011;1821;50.936;6.854;2023-03-21T00:09:26;8.88;;;6.68;;
3613;SDS011;1821;50.936;6.854;2023-03-21T00:10:08;8.98;;;6.18;;
3613;SDS011;1821;50.936;6.854;2023-03-21T00:11:01;8.15;;;5.90;;
3613;SDS011;1821;50.936;6.854;2023-03-21T00:11:44;10.00;;;6.00;;
3613;SDS011;1821;50.936;6.854;2023-03-21T00:12:26;9.70;;;6.05;;
3613;SDS011;1821;50.936;6.854;2023-03-21T00:13:13;10.73;;;7.05;;
3613;SDS011;1821;50.936;6.854;2023-03-21T00:13:58;9.85;;;6.50;;
3613;SDS011;1821;50.936;6.854;2023-03-21T00:14:43;10.07;;;6.57;;
3613;SDS011;1821;50.936;6.854;2023-03-21T00:15:25;11.60;;;6.40;;
3613;SDS011;1821;50.936;6.854;2023-03-21T00:16:24;12.95;;;6.10;;
3613;SDS011;1821;50.936;6.854;2023-03-21T00:17:15;11.15;;;6.32;;
3613;SDS011;1821;50.936;6.854;2023-03-21T00:17:57;7.13;;;5.53;;
3613;SDS011;1821;50.936;6.854;2023-03-21T00:18:47;7.88;;;5.53;;
3613;SDS011;1821;50.936;6.854;2023-03-21T00:19:32;9.20;;;5.90;;
3613;SDS011;1821;50.936;6.854;2023-03-21T00:20:18;7.30;;;5.50;;
3613;SDS011;1821;50.936;6.854;2023-03-21T00:21:02;10.15;;;6.30;;
3613;SDS011;1821;50.936;6.854;2023-03-21T00:22:05;11.13;;;6.78;;
3613;SDS011;1821;50.936;6.854;2023-03-21T00:22:49;7.27;;;6.03;;
3613;SDS011;1821;50.936;6.854;2023-03-21T00:23:32;9.38;;;5.60;;
3613;SDS011;1821;50.936;6.854;2023-03-21T00:24:14;10.57;;;6.15;;
3613;SDS011;1821;50.936;6.854;2023-03-21T00:24:56;7.97;;;6.00;;
3613;SDS011;1821;50.936;6.854;2023-03-21T00:25:38;8.50;;;5.45;;
3613;SDS011;1821;50.936;6.854;2023-03-21T00:26:20;7.10;;;5.32;;
3613;SDS011;1821;50.936;6.854;2023-03-21T00:27:02;7.82;;;5.57;;
3613;SDS011;1821;50.936;6.854;2023-03-21T00:28:04;10.25;;;5.50;;
3613;SDS011;1821;50.936;6.854;2023-03-21T00:28:49;10.25;;;5.45;;
3613;SDS011;1821;50.936;6.854;2023-03-21T00:29:31;9.63;;;5.90;;
3613;SDS011;1821;50.936;6.854;2023-03-21T00:30:13;9.48;;;6.60;;
3613;SDS011;1821;50.936;6.854;2023-03-21T00:30:57;10.43;;;6.53;;
3613;SDS011;1821;50.936;6.854;2023-03-21T00:31:39;9.15;;;5.70;;
3613;SDS011;1821;50.936;6.854;2023-03-21T00:32:21;9.60;;;5.75;;
3613;SDS011;1821;50.936;6.854;2023-03-21T00:33:03;11.57;;;5.93;;
3613;SDS011;1821;50.936;6.854;2023-03-21T00:34:02;9.68;;;6.35;;
3613;SDS011;1821;50.936;6.854;2023-03-21T00:34:44;13.32;;;7.40;;
3613;SDS011;1821;50.936;6.854;2023-03-21T00:35:45;9.93;;;5.78;;
3613;SDS011;1821;50.936;6.854;2023-03-21T00:36:43;9.52;;;5.65;;
3613;SDS011;1821;50.936;6.854;2023-03-21T00:37:27;10.15;;;5.45;;
3613;SDS011;1821;50.936;6.854;2023-03-21T00:38:09;9.23;;;5.90;;
3613;SDS011;1821;50.936;6.854;2023-03-21T00:38:52;10.40;;;6.30;;
3613;SDS011;1821;50.936;6.854;2023-03-21T00:39:34;11.32;;;5.97;;
3613;SDS011;1821;50.936;6.854;2023-03-21T00:40:16;10.27;;;6.13;;
3613;SDS011;1821;50.936;6.854;2023-03-21T00:41:12;9.73;;;6.78;;
3613;SDS011;1821;50.936;6.854;2023-03-21T00:42:11;13.85;;;6.00;;
3613;SDS011;1821;50.936;6.854;2023-03-21T00:42:53;9.93;;;6.10;;
3613;SDS011;1821;50.936;6.854;2023-03-21T00:43:35;8.25;;;6.25;;
3613;SDS011;1821;50.936;6.854;2023-03-21T00:44:17;9.35;;;6.20;;
3613;SDS011;1821;50.936;6.854;2023-03-21T00:44:59;10.23;;;5.88;;
3613;SDS011;1821;50.936;6.854;2023-03-21T00:45:42;9.95;;;6.15;;
3613;SDS011;1821;50.936;6.854;2023-03-21T00:46:25;10.02;;;6.80;;
3613;SDS011;1821;50.936;6.854;2023-03-21T00:47:16;8.48;;;5.93;;
3613;SDS011;1821;50.936;6.854;2023-03-21T00:47:58;10.10;;;6.32;;
3613;SDS011;1821;50.936;6.854;2023-03-21T00:48:40;11.02;;;5.90;;
3613;SDS011;1821;50.936;6.854;2023-03-21T00:49:22;11.45;;;6.03;;
3613;SDS011;1821;50.936;6.854;2023-03-21T00:50:04;10.65;;;5.72;;
3613;SDS011;1821;50.936;6.854;2023-03-21T00:50:47;10.98;;;6.20;;
3613;SDS011;1821;50.936;6.854;2023-03-21T00:51:32;10.00;;;6.10;;
3613;SDS011;1821;50.936;6.854;2023-03-21T00:52:14;11.70;;;6.05;;
3613;SDS011;1821;50.936;6.854;2023-03-21T00:53:10;9.20;;;5.97;;
3613;SDS011;1821;50.936;6.854;2023-03-21T00:53:54;8.63;;;5.80;;
3613;SDS011;1821;50.936;6.854;2023-03-21T00:54:37;13.38;;;5.93;;
3613;SDS011;1821;50.936;6.854;2023-03-21T00:55:19;12.25;;;6.18;;
3613;SDS011;1821;50.936;6.854;2023-03-21T00:56:01;11.55;;;6.63;;
3613;SDS011;1821;50.936;6.854;2023-03-21T00:56:43;9.00;;;6.20;;
3613;SDS011;1821;50.936;6.854;2023-03-21T00:57:25;8.35;;;5.95;;
3613;SDS011;1821;50.936;6.854;2023-03-21T00:58:19;9.80;;;5.90;;
3613;SDS011;1821;50.936;6.854;2023-03-21T00:59:01;12.43;;;6.10;;
3613;SDS011;1821;50.936;6.854;2023-03-21T00:59:43;10.20;;;5.90;;
3613;SDS011;1821;50.936;6.854;2023-03-21T01:00:25;9.30;;;6.13;;
3613;SDS011;1821;50.936;6.854;2023-03-21T01:01:07;9.35;;;6.18;;
3613;SDS011;1821;50.936;6.854;2023-03-21T01:01:50;9.00;;;6.53;;
3613;SDS011;1821;50.936;6.854;2023-03-21T01:02:33;7.30;;;6.20;;
3613;SDS011;1821;50.936;6.854;2023-03-21T01:03:15;10.73;;;5.78;;
3613;SDS011;1821;50.936;6.854;2023-03-21T01:04:05;12.25;;;5.72;;
3613;SDS011;1821;50.936;6.854;2023-03-21T01:04:54;12.18;;;5.50;;
3613;SDS011;1821;50.936;6.854;2023-03-21T01:05:37;10.65;;;6.30;;
3613;SDS011;1821;50.936;6.854;2023-03-21T01:06:47;9.40;;;5.60;;
3613;SDS011;1821;50.936;6.854;2023-03-21T01:07:30;9.20;;;6.22;;
3613;SDS011;1821;50.936;6.854;2023-03-21T01:08:13;10.88;;;6.47;;
3613;SDS011;1821;50.936;6.854;2023-03-21T01:09:14;11.68;;;6.25;;
3613;SDS011;1821;50.936;6.854;2023-03-21T01:09:58;13.75;;;6.60;;
3613;SDS011;1821;50.936;6.854;2023-03-21T01:10:42;12.15;;;6.72;;
3613;SDS011;1821;50.936;6.854;2023-03-21T01:11:26;9.30;;;6.18;;
3613;SDS011;1821;50.936;6.854;2023-03-21T01:12:09;9.75;;;6.80;;
3613;SDS011;1821;50.936;6.854;2023-03-21T01:12:51;10.02;;;6.32;;
3613;SDS011;1821;50.936;6.854;2023-03-21T01:13:36;9.13;;;6.07;;
3613;SDS011;1821;50.936;6.854;2023-03-21T01:14:24;9.82;;;5.97;;
3613;SDS011;1821;50.936;6.854;2023-03-21T01:15:06;10.45;;;6.90;;
3613;SDS011;1821;50.936;6.854;2023-03-21T01:15:52;9.80;;;6.00;;
3613;SDS011;1821;50.936;6.854;2023-03-21T01:16:36;12.88;;;6.20;;
3613;SDS011;1821;50.936;6.854;2023-03-21T01:17:18;12.30;;;6.32;;
3613;SDS011;1821;50.936;6.854;2023-03-21T01:18:00;10.18;;;6.18;;
3613;SDS011;1821;50.936;6.854;2023-03-21T01:18:42;9.02;;;6.05;;
3613;SDS011;1821;50.936;6.854;2023-03-21T01:19:24;9.55;;;6.10;;
3613;SDS011;1821;50.936;6.854;2023-03-21T01:20:30;9.65;;;5.85;;
3613;SDS011;1821;50.936;6.854;2023-03-21T01:21:12;9.50;;;6.35;;
3613;SDS011;1821;50.936;6.854;2023-03-21T01:21:55;10.45;;;5.80;;
3613;SDS011;1821;50.936;6.854;2023-03-21T01:22:37;8.93;;;5.57;;
3613;SDS011;1821;50.936;6.854;2023-03-21T01:23:19;10.13;;;6.60;;
3613;SDS011;1821;50.936;6.854;2023-03-21T01:24:02;8.80;;;5.80;;
3613;SDS011;1821;50.936;6.854;2023-03-21T01:24:44;8.60;;;5.78;;
3613;SDS011;1821;50.936;6.854;2023-03-21T01:25:37;9.70;;;6.00;;
3613;SDS011;1821;50.936;6.854;2023-03-21T01:26:19;9.65;;;5.82;;
3613;SDS011;1821;50.936;6.854;2023-03-21T01:27:01;10.27;;;6.30;;
3613;SDS011;1821;50.936;6.854;2023-03-21T01:27:43;11.40;;;6.30;;
3613;SDS011;1821;50.936;6.854;2023-03-21T01:28:27;9.25;;;6.03;;
3613;SDS011;1821;50.936;6.854;2023-03-21T01:29:10;9.48;;;6.30;;
3613;SDS011;1821;50.936;6.854;2023-03-21T01:29:52;9.73;;;6.20;;
3613;SDS011;1821;50.936;6.854;2023-03-21T01:30:34;9.82;;;6.30;;
3613;SDS011;1821;50.936;6.854;2023-03-21T01:31:22;9.65;;;6.47;;
3613;SDS011;1821;50.936;6.854;2023-03-21T01:32:04;12.70;;;7.30;;
3613;SDS011;1821;50.936;6.854;2023-03-21T01:32:46;12.80;;;7.50;;
3613;SDS011;1821;50.936;6.854;2023-03-21T01:33:29;12.05;;;7.10;;
3613;SDS011;1821;50.936;6.854;2023-03-21T01:34:11;12.85;;;6.75;;
3613;SDS011;1821;50.936;6.854;2023-03-21T01:34:55;10.27;;;6.10;;
3613;SDS011;1821;50.936;6.854;2023-03-21T01:35:37;9.55;;;6.40;;
3613;SDS011;1821;50.936;6.854;2023-03-21T01:36:31;12.45;;;6.70;;
3613;SDS011;1821;50.936;6.854;2023-03-21T01:37:14;10.20;;;6.80;;
3613;SDS011;1821;50.936;6.854;2023-03-21T01:37:58;9.68;;;6.72;;
3613;SDS011;1821;50.936;6.854;2023-03-21T01:38:42;9.75;;;6.93;;
3613;SDS011;1821;50.936;6.854;2023-03-21T01:39:24;9.38;;;6.50;;
3613;SDS011;1821;50.936;6.854;2023-03-21T01:40:06;12.18;;;7.00;;
3613;SDS011;1821;50.936;6.854;2023-03-21T01:40:52;10.50;;;7.57;;
3613;SDS011;1821;50.936;6.854;2023-03-21T01:41:40;13.70;;;7.22;;
3613;SDS011;1821;50.936;6.854;2023-03-21T01:42:25;11.85;;;6.65;;
3613;SDS011;1821;50.936;6.854;2023-03-21T01:43:26;12.70;;;6.90;;
3613;SDS011;1821;50.936;6.854;2023-03-21T01:44:13;11.77;;;6.60;;
3613;SDS011;1821;50.936;6.854;2023-03-21T01:45:01;12.13;;;7.45;;
3613;SDS011;1821;50.936;6.854;2023-03-21T01:47:04;9.25;;;6.35;;
3613;SDS011;1821;50.936;6.854;2023-03-21T01:47:52;8.98;;;7.20;;
3613;SDS011;1821;50.936;6.854;2023-03-21T01:48:35;13.57;;;7.28;;
3613;SDS011;1821;50.936;6.854;2023-03-21T01:49:22;12.55;;;6.68;;
3613;SDS011;1821;50.936;6.854;2023-03-21T01:50:06;12.80;;;7.38;;
3613;SDS011;1821;50.936;6.854;2023-03-21T01:50:48;13.57;;;7.15;;
3613;SDS011;1821;50.936;6.854;2023-03-21T01:51:32;13.60;;;6.70;;
3613;SDS011;1821;50.936;6.854;2023-03-21T01:52:19;11.63;;;6.75;;
3613;SDS011;1821;50.936;6.854;2023-03-21T01:53:18;12.40;;;7.20;;
3613;SDS011;1821;50.936;6.854;2023-03-21T01:54:02;13.00;;;6.68;;
3613;SDS011;1821;50.936;6.854;2023-03-21T01:54:48;11.35;;;7.38;;
3613;SDS011;1821;50.936;6.854;2023-03-21T01:55:31;12.00;;;6.70;;
3613;SDS011;1821;50.936;6.854;2023-03-21T01:57:02;13.10;;;6.55;;
3613;SDS011;1821;50.936;6.854;2023-03-21T01:57:51;10.15;;;6.53;;
3613;SDS011;1821;50.936;6.854;2023-03-21T01:58:46;11.73;;;6.90;;
3613;SDS011;1821;50.936;6.854;2023-03-21T01:59:35;9.05;;;6.00;;
3613;SDS011;1821;50.936;6.854;2023-03-21T02:00:19;9.48;;;6.13;;
3613;SDS011;1821;50.936;6.854;2023-03-21T02:01:05;11.55;;;6.70;;
3613;SDS011;1821;50.936;6.854;2023-03-21T02:01:48;9.77;;;6.43;;
3613;SDS011;1821;50.936;6.854;2023-03-21T02:02:31;11.60;;;6.60;;
3613;SDS011;1821;50.936;6.854;2023-03-21T02:03:18;11.85;;;7.40;;
3613;SDS011;1821;50.936;6.854;2023-03-21T02:04:16;13.05;;;7.10;;
3613;SDS011;1821;50.936;6.854;2023-03-21T02:05:02;9.82;;;6.20;;
3613;SDS011;1821;50.936;6.854;2023-03-21T02:06:00;11.27;;;6.70;;
3613;SDS011;1821;50.936;6.854;2023-03-21T02:08:08;16.20;;;8.50;;
3613;SDS011;1821;50.936;6.854;2023-03-21T02:08:50;12.70;;;7.25;;
3613;SDS011;1821;50.936;6.854;2023-03-21T02:09:34;10.27;;;6.70;;
3613;SDS011;1821;50.936;6.854;2023-03-21T02:10:17;11.30;;;7.15;;
3613;SDS011;1821;50.936;6.854;2023-03-21T02:10:59;12.10;;;7.30;;
3613;SDS011;1821;50.936;6.854;2023-03-21T02:11:41;11.02;;;7.40;;
3613;SDS011;1821;50.936;6.854;2023-03-21T02:12:27;12.70;;;6.70;;
3613;SDS011;1821;50.936;6.854;2023-03-21T02:13:09;12.68;;;6.40;;
3613;SDS011;1821;50.936;6.854;2023-03-21T02:13:51;13.85;;;7.60;;
3613;SDS011;1821;50.936;6.854;2023-03-21T02:14:47;12.90;;;6.57;;
3613;SDS011;1821;50.936;6.854;2023-03-21T02:15:30;10.57;;;6.93;;
3613;SDS011;1821;50.936;6.854;2023-03-21T02:16:27;10.48;;;7.20;;
3613;SDS011;1821;50.936;6.854;2023-03-21T02:19:34;13.45;;;7.13;;
3613;SDS011;1821;50.936;6.854;2023-03-21T02:27:06;12.32;;;6.90;;
3613;SDS011;1821;50.936;6.854;2023-03-21T02:28:59;12.75;;;7.20;;
3613;SDS011;1821;50.936;6.854;2023-03-21T02:30:13;11.63;;;7.00;;
3613;SDS011;1821;50.936;6.854;2023-03-21T02:31:40;13.20;;;6.63;;
3613;SDS011;1821;50.936;6.854;2023-03-21T02:38:06;13.93;;;7.63;;
3613;SDS011;1821;50.936;6.854;2023-03-21T02:39:23;13.63;;;8.10;;
3613;SDS011;1821;50.936;6.854;2023-03-21T02:41:34;12.88;;;7.25;;
3613;SDS011;1821;50.936;6.854;2023-03-21T02:43:40;12.50;;;7.57;;
3613;SDS011;1821;50.936;6.854;2023-03-21T02:45:46;11.07;;;7.30;;
3613;SDS011;1821;50.936;6.854;2023-03-21T02:46:40;12.20;;;7.38;;
3613;SDS011;1821;50.936;6.854;2023-03-21T02:47:52;11.33;;;7.40;;
3613;SDS011;1821;50.936;6.854;2023-03-21T02:48:39;9.82;;;6.55;;
3613;SDS011;1821;50.936;6.854;2023-03-21T02:50:32;13.25;;;6.70;;
3613;SDS011;1821;50.936;6.854;2023-03-21T02:51:22;11.55;;;7.10;;
3613;SDS011;1821;50.936;6.854;2023-03-21T02:52:06;10.43;;;7.30;;
3613;SDS011;1821;50.936;6.854;2023-03-21T02:53:03;12.95;;;7.57;;
3613;SDS011;1821;50.936;6.854;2023-03-21T02:53:49;13.82;;;7.95;;
3613;SDS011;1821;50.936;6.854;2023-03-21T02:55:01;12.57;;;7.50;;
3613;SDS011;1821;50.936;6.854;2023-03-21T02:55:47;9.60;;;6.70;;
3613;SDS011;1821;50.936;6.854;2023-03-21T02:56:31;11.15;;;7.35;;
3613;SDS011;1821;50.936;6.854;2023-03-21T02:57:15;13.65;;;8.10;;
3613;SDS011;1821;50.936;6.854;2023-03-21T02:57:59;12.65;;;7.68;;
3613;SDS011;1821;50.936;6.854;2023-03-21T02:58:53;11.70;;;7.68;;
3613;SDS011;1821;50.936;6.854;2023-03-21T02:59:35;14.13;;;7.78;;
3613;SDS011;1821;50.936;6.854;2023-03-21T03:00:33;11.80;;;7.45;;
3613;SDS011;1821;50.936;6.854;2023-03-21T03:01:17;13.98;;;7.78;;
3613;SDS011;1821;50.936;6.854;2023-03-21T03:01:59;13.82;;;7.95;;
3613;SDS011;1821;50.936;6.854;2023-03-21T03:02:42;11.23;;;7.72;;
3613;SDS011;1821;50.936;6.854;2023-03-21T03:03:25;12.13;;;7.22;;
3613;SDS011;1821;50.936;6.854;2023-03-21T03:04:18;12.55;;;7.57;;
3613;SDS011;1821;50.936;6.854;2023-03-21T03:05:08;13.60;;;7.32;;
3613;SDS011;1821;50.936;6.854;2023-03-21T03:06:02;10.50;;;7.28;;
3613;SDS011;1821;50.936;6.854;2023-03-21T03:11:38;12.82;;;7.57;;
3613;SDS011;1821;50.936;6.854;2023-03-21T03:16:52;12.25;;;7.57;;
3613;SDS011;1821;50.936;6.854;2023-03-21T03:18:56;12.18;;;7.22;;
3613;SDS011;1821;50.936;6.854;2023-03-21T03:19:59;13.25;;;8.30;;
3613;SDS011;1821;50.936;6.854;2023-03-21T03:21:46;9.13;;;6.43;;
3613;SDS011;1821;50.936;6.854;2023-03-21T03:24:01;11.48;;;7.20;;
3613;SDS011;1821;50.936;6.854;2023-03-21T03:26:03;11.45;;;6.85;;
3613;SDS011;1821;50.936;6.854;2023-03-21T03:27:35;11.25;;;6.93;;
3613;SDS011;1821;50.936;6.854;2023-03-21T03:28:27;14.23;;;7.15;;
3613;SDS011;1821;50.936;6.854;2023-03-21T03:29:15;12.38;;;7.50;;
3613;SDS011;1821;50.936;6.854;2023-03-21T03:29:59;13.60;;;7.30;;
3613;SDS011;1821;50.936;6.854;2023-03-21T03:30:44;10.80;;;8.07;;
3613;SDS011;1821;50.936;6.854;2023-03-21T03:31:49;11.32;;;6.60;;
3613;SDS011;1821;50.936;6.854;2023-03-21T03:32:37;11.18;;;6.63;;
3613;SDS011;1821;50.936;6.854;2023-03-21T03:33:25;9.65;;;7.20;;
3613;SDS011;1821;50.936;6.854;2023-03-21T03:34:11;13.30;;;7.50;;
3613;SDS011;1821;50.936;6.854;2023-03-21T03:34:56;12.55;;;6.97;;
3613;SDS011;1821;50.936;6.854;2023-03-21T03:35:39;10.68;;;6.90;;
3613;SDS011;1821;50.936;6.854;2023-03-21T03:36:29;14.43;;;7.03;;
3613;SDS011;1821;50.936;6.854;2023-03-21T03:37:17;12.25;;;6.78;;
3613;SDS011;1821;50.936;6.854;2023-03-21T03:38:02;12.30;;;6.47;;
3613;SDS011;1821;50.936;6.854;2023-03-21T03:38:47;10.80;;;6.90;;
3613;SDS011;1821;50.936;6.854;2023-03-21T03:39:39;10.77;;;6.90;;
3613;SDS011;1821;50.936;6.854;2023-03-21T03:40:35;10.88;;;7.15;;
3613;SDS011;1821;50.936;6.854;2023-03-21T03:41:25;10.25;;;6.90;;
3613;SDS011;1821;50.936;6.854;2023-03-21T03:42:33;15.82;;;7.47;;
3613;SDS011;1821;50.936;6.854;2023-03-21T03:43:22;10.93;;;6.80;;
3613;SDS011;1821;50.936;6.854;2023-03-21T03:44:09;10.80;;;7.38;;
3613;SDS011;1821;50.936;6.854;2023-03-21T03:44:52;13.25;;;7.68;;
3613;SDS011;1821;50.936;6.854;2023-03-21T03:45:36;13.93;;;7.35;;
3613;SDS011;1821;50.936;6.854;2023-03-21T03:46:43;13.10;;;7.53;;
3613;SDS011;1821;50.936;6.854;2023-03-21T03:48:41;11.80;;;7.35;;
3613;SDS011;1821;50.936;6.854;2023-03-21T03:49:36;11.60;;;6.65;;
3613;SDS011;1821;50.936;6.854;2023-03-21T03:50:27;16.38;;;7.25;;
3613;SDS011;1821;50.936;6.854;2023-03-21T03:51:22;12.05;;;7.28;;
3613;SDS011;1821;50.936;6.854;2023-03-21T03:52:12;11.60;;;6.95;;
3613;SDS011;1821;50.936;6.854;2023-03-21T03:53:05;11.23;;;6.88;;
3613;SDS011;1821;50.936;6.854;2023-03-21T03:54:03;11.38;;;6.97;;
3613;SDS011;1821;50.936;6.854;2023-03-21T03:54:52;14.25;;;7.13;;
3613;SDS011;1821;50.936;6.854;2023-03-21T03:55:37;15.57;;;7.50;;
3613;SDS011;1821;50.936;6.854;2023-03-21T03:56:19;12.85;;;6.70;;
3613;SDS011;1821;50.936;6.854;2023-03-21T03:57:03;12.73;;;7.28;;
3613;SDS011;1821;50.936;6.854;2023-03-21T03:57:46;15.80;;;7.57;;
3613;SDS011;1821;50.936;6.854;2023-03-21T03:58:29;11.27;;;6.78;;
3613;SDS011;1821;50.936;6.854;2023-03-21T03:59:25;14.18;;;7.78;;
3613;SDS011;1821;50.936;6.854;2023-03-21T04:00:09;10.68;;;6.82;;
3613;SDS011;1821;50.936;6.854;2023-03-21T04:00:53;11.60;;;7.20;;
3613;SDS011;1821;50.936;6.854;2023-03-21T04:01:37;13.05;;;7.65;;
3613;SDS011;1821;50.936;6.854;2023-03-21T04:02:19;13.68;;;6.63;;
3613;SDS011;1821;50.936;6.854;2023-03-21T04:03:01;12.68;;;6.90;;
3613;SDS011;1821;50.936;6.854;2023-03-21T04:03:44;12.23;;;6.72;;
3613;SDS011;1821;50.936;6.854;2023-03-21T04:04:38;12.38;;;7.65;;
3613;SDS011;1821;50.936;6.854;2023-03-21T04:05:22;12.60;;;7.90;;
3613;SDS011;1821;50.936;6.854;2023-03-21T04:06:04;10.13;;;6.90;;
3613;SDS011;1821;50.936;6.854;2023-03-21T04:06:46;12.00;;;7.60;;
3613;SDS011;1821;50.936;6.854;2023-03-21T04:07:31;13.80;;;7.70;;
3613;SDS011;1821;50.936;6.854;2023-03-21T04:08:14;13.98;;;7.30;;
3613;SDS011;1821;50.936;6.854;2023-03-21T04:08:57;12.52;;;6.97;;
3613;SDS011;1821;50.936;6.854;2023-03-21T04:09:41;10.57;;;6.50;;
3613;SDS011;1821;50.936;6.854;2023-03-21T04:10:25;10.43;;;6.82;;
3613;SDS011;1821;50.936;6.854;2023-03-21T04:11:07;12.77;;;7.00;;
3613;SDS011;1821;50.936;6.854;2023-03-21T04:11:52;11.85;;;6.50;;
3613;SDS011;1821;50.936;6.854;2023-03-21T04:12:34;12.57;;;6.32;;
3613;SDS011;1821;50.936;6.854;2023-03-21T04:13:16;10.70;;;6.93;;
3613;SDS011;1821;50.936;6.854;2023-03-21T04:14:00;10.73;;;6.13;;
3613;SDS011;1821;50.936;6.854;2023-03-21T04:14:42;13.00;;;6.70;;
3613;SDS011;1821;50.936;6.854;2023-03-21T04:15:27;12.75;;;6.53;;
3613;SDS011;1821;50.936;6.854;2023-03-21T04:16:10;12.43;;;6.50;;
3613;SDS011;1821;50.936;6.854;2023-03-21T04:16:53;11.57;;;7.25;;
3613;SDS011;1821;50.936;6.854;2023-03-21T04:17:35;11.10;;;7.15;;
3613;SDS011;1821;50.936;6.854;2023-03-21T04:18:21;12.48;;;6.70;;
3613;SDS011;1821;50.936;6.854;2023-03-21T04:19:03;11.35;;;6.80;;
3613;SDS011;1821;50.936;6.854;2023-03-21T04:19:45;10.60;;;6.50;;
3613;SDS011;1821;50.936;6.854;2023-03-21T04:20:27;12.55;;;6.43;;
3613;SDS011;1821;50.936;6.854;2023-03-21T04:21:17;12.63;;;6.70;;
3613;SDS011;1821;50.936;6.854;2023-03-21T04:21:59;11.73;;;7.28;;
3613;SDS011;1821;50.936;6.854;2023-03-21T04:22:41;11.35;;;7.05;;
3613;SDS011;1821;50.936;6.854;2023-03-21T04:23:23;11.77;;;6.50;;
3613;SDS011;1821;50.936;6.854;2023-03-21T04:24:05;10.27;;;6.22;;
3613;SDS011;1821;50.936;6.854;2023-03-21T04:24:47;12.82;;;6.70;;
3613;SDS011;1821;50.936;6.854;2023-03-21T04:25:29;12.75;;;6.90;;
3613;SDS011;1821;50.936;6.854;2023-03-21T04:26:14;11.30;;;6.80;;
3613;SDS011;1821;50.936;6.854;2023-03-21T04:26:56;11.98;;;6.70;;
3613;SDS011;1821;50.936;6.854;2023-03-21T04:27:41;13.07;;;6.72;;
3613;SDS011;1821;50.936;6.854;2023-03-21T04:28:22;12.88;;;6.70;;
3613;SDS011;1821;50.936;6.854;2023-03-21T04:29:04;11.18;;;6.60;;
3613;SDS011;1821;50.936;6.854;2023-03-21T04:29:46;11.73;;;6.80;;
3613;SDS011;1821;50.936;6.854;2023-03-21T04:30:31;10.48;;;6.65;;
3613;SDS011;1821;50.936;6.854;2023-03-21T04:31:14;10.38;;;6.75;;
3613;SDS011;1821;50.936;6.854;2023-03-21T04:32:06;12.63;;;6.50;;
3613;SDS011;1821;50.936;6.854;2023-03-21T04:32:56;16.08;;;7.57;;
3613;SDS011;1821;50.936;6.854;2023-03-21T04:33:41;16.65;;;7.30;;
3613;SDS011;1821;50.936;6.854;2023-03-21T04:34:24;12.23;;;6.40;;
3613;SDS011;1821;50.936;6.854;2023-03-21T04:35:09;10.07;;;6.53;;
3613;SDS011;1821;50.936;6.854;2023-03-21T04:35:51;10.60;;;6.20;;
3613;SDS011;1821;50.936;6.854;2023-03-21T04:36:36;14.10;;;7.18;;
3613;SDS011;1821;50.936;6.854;2023-03-21T04:37:26;12.93;;;6.72;;
3613;SDS011;1821;50.936;6.854;2023-03-21T04:38:08;11.93;;;6.28;;
3613;SDS011;1821;50.936;6.854;2023-03-21T04:38:52;12.50;;;6.07;;
3613;SDS011;1821;50.936;6.854;2023-03-21T04:39:35;10.32;;;6.35;;
3613;SDS011;1821;50.936;6.854;2023-03-21T04:40:17;10.18;;;6.10;;
3613;SDS011;1821;50.936;6.854;2023-03-21T04:40:59;12.40;;;6.40;;
3613;SDS011;1821;50.936;6.854;2023-03-21T04:41:43;13.27;;;6.25;;
3613;SDS011;1821;50.936;6.854;2023-03-21T04:42:25;12.30;;;6.45;;
3613;SDS011;1821;50.936;6.854;2023-03-21T04:43:07;13.93;;;7.20;;
3613;SDS011;1821;50.936;6.854;2023-03-21T04:43:50;12.70;;;7.10;;
3613;SDS011;1821;50.936;6.854;2023-03-21T04:44:32;10.88;;;6.25;;
3613;SDS011;1821;50.936;6.854;2023-03-21T04:45:15;9.18;;;5.93;;
3613;SDS011;1821;50.936;6.854;2023-03-21T04:45:57;9.27;;;6.20;;
3613;SDS011;1821;50.936;6.854;2023-03-21T04:46:40;10.60;;;6.55;;
3613;SDS011;1821;50.936;6.854;2023-03-21T04:47:22;11.40;;;6.25;;
3613;SDS011;1821;50.936;6.854;2023-03-21T04:48:04;11.13;;;6.60;;
3613;SDS011;1821;50.936;6.854;2023-03-21T04:48:46;11.90;;;6.43;;
3613;SDS011;1821;50.936;6.854;2023-03-21T04:49:29;10.90;;;6.88;;
3613;SDS011;1821;50.936;6.854;2023-03-21T04:50:11;11.13;;;6.32;;
3613;SDS011;1821;50.936;6.854;2023-03-21T04:50:54;10.63;;;6.68;;
3613;SDS011;1821;50.936;6.854;2023-03-21T04:51:36;9.48;;;6.13;;
3613;SDS011;1821;50.936;6.854;2023-03-21T04:52:18;12.00;;;6.63;;
3613;SDS011;1821;50.936;6.854;2023-03-21T04:53:01;10.80;;;6.60;;
3613;SDS011;1821;50.936;6.854;2023-03-21T04:53:42;12.23;;;6.30;;
3613;SDS011;1821;50.936;6.854;2023-03-21T04:54:26;11.65;;;6.32;;
3613;SDS011;1821;50.936;6.854;2023-03-21T04:55:07;12.90;;;6.85;;
3613;SDS011;1821;50.936;6.854;2023-03-21T04:55:50;12.73;;;6.45;;
3613;SDS011;1821;50.936;6.854;2023-03-21T04:56:35;13.32;;;6.05;;
3613;SDS011;1821;50.936;6.854;2023-03-21T04:57:18;17.80;;;6.97;;
3613;SDS011;1821;50.936;6.854;2023-03-21T04:58:00;16.00;;;7.18;;
3613;SDS011;1821;50.936;6.854;2023-03-21T04:58:42;11.75;;;6.30;;
3613;SDS011;1821;50.936;6.854;2023-03-21T04:59:26;12.77;;;6.72;;
3613;SDS011;1821;50.936;6.854;2023-03-21T05:00:08;13.77;;;6.40;;
3613;SDS011;1821;50.936;6.854;2023-03-21T05:00:51;14.35;;;6.30;;
3613;SDS011;1821;50.936;6.854;2023-03-21T05:01:33;11.77;;;6.22;;
3613;SDS011;1821;50.936;6.854;2023-03-21T05:02:18;10.73;;;6.60;;
3613;SDS011;1821;50.936;6.854;2023-03-21T05:03:00;8.20;;;6.05;;
3613;SDS011;1821;50.936;6.854;2023-03-21T05:03:42;10.02;;;6.15;;
3613;SDS011;1821;50.936;6.854;2023-03-21T05:04:26;12.38;;;6.93;;
3613;SDS011;1821;50.936;6.854;2023-03-21T05:05:08;13.27;;;7.38;;
3613;SDS011;1821;50.936;6.854;2023-03-21T05:05:52;12.63;;;6.80;;
3613;SDS011;1821;50.936;6.854;2023-03-21T05:06:34;11.95;;;6.68;;
3613;SDS011;1821;50.936;6.854;2023-03-21T05:07:16;11.30;;;5.95;;
3613;SDS011;1821;50.936;6.854;2023-03-21T05:07:58;11.85;;;6.15;;
3613;SDS011;1821;50.936;6.854;2023-03-21T05:08:40;10.88;;;6.05;;
3613;SDS011;1821;50.936;6.854;2023-03-21T05:09:22;12.45;;;6.00;;
3613;SDS011;1821;50.936;6.854;2023-03-21T05:10:05;12.18;;;6.15;;
3613;SDS011;1821;50.936;6.854;2023-03-21T05:10:49;12.65;;;6.25;;
3613;SDS011;1821;50.936;6.854;2023-03-21T05:11:32;11.93;;;7.00;;
3613;SDS011;1821;50.936;6.854;2023-03-21T05:12:17;13.77;;;6.28;;
3613;SDS011;1821;50.936;6.854;2023-03-21T05:13:00;11.10;;;5.80;;
3613;SDS011;1821;50.936;6.854;2023-03-21T05:13:42;11.23;;;5.72;;
3613;SDS011;1821;50.936;6.854;2023-03-21T05:14:26;9.20;;;6.57;;
3613;SDS011;1821;50.936;6.854;2023-03-21T05:15:08;12.23;;;6.28;;
3613;SDS011;1821;50.936;6.854;2023-03-21T05:15:50;13.60;;;6.50;;
3613;SDS011;1821;50.936;6.854;2023-03-21T05:16:33;12.35;;;5.97;;
3613;SDS011;1821;50.936;6.854;2023-03-21T05:17:16;12.88;;;6.40;;
3613;SDS011;1821;50.936;6.854;2023-03-21T05:18:03;9.95;;;5.75;;
3613;SDS011;1821;50.936;6.854;2023-03-21T05:18:50;10.15;;;6.13;;
3613;SDS011;1821;50.936;6.854;2023-03-21T05:19:33;10.60;;;6.15;;
3613;SDS011;1821;50.936;6.854;2023-03-21T05:20:16;11.55;;;6.00;;
3613;SDS011;1821;50.936;6.854;2023-03-21T05:20:59;9.48;;;5.60;;
3613;SDS011;1821;50.936;6.854;2023-03-21T05:21:41;10.60;;;6.03;;
3613;SDS011;1821;50.936;6.854;2023-03-21T05:22:24;10.50;;;5.70;;